SBGRSBCG

Guest
Details From SBGR - Sao Paulo - Guarulhos
To SBCG - Campo Grande
Flight Number -
Tags decoded
Created
Modified
Stats Distance 490 nm / 908 km
Max Altitude 0 ft / 0 m
Waypoints 2
Social Downloads 0
Likes 0
Share VATSIM

Download

Looking for another format? Having issues loading an existing format? Contact us
Advertisement - Login to hide

Notes

Requested: SBGR SBCG

Route

SBGR SBCG

ID Type Via Altitude Latitude Longitude Leg Dist Tot Dist Heading (true) Name
O SBGR APT - 0 ft / 0 m -23.43233˚ -46.46968˚ - 0 nm - Sao Paulo - Guarulhos
O SBCG APT - 0 ft / 0 m -20.46867˚ -54.67250˚ 490 nm 490 nm 290° / 293° Campo Grande

Altitude Profile

Advertisement - Login to hide

Weather


0- 5 10 15 20 25 30 35+ Temperature / ° C

Clouds and Precipitation
Forecast for 2018-05-24 18:00 UTC. Updated an hour ago

Ground ~20,000 ft ~40,000 ft Winds

SBGR

Details ICAO SBGR (GRU)
Name Sao Paulo - Guarulhos
Region Brazil
Timezone America/Sao_Paulo (UTC-3.0)
Stats Elevation 2,459 ft / 750 m (AMSL)
Location -23.432333° -46.469675°
Runways 2
Magnetic Variation 21.466° W

METAR

SBGR 241800Z 09003KT 9999 FEW040 22/13 Q1023

Decode

TAF

TAF SBGR 241601Z 2418/2524 12005KT 8000 FEW030TX23/2418Z TN13/2507Z BECMG 2418/2420 15005KT BECMG 2420/2422 14004KT 8000 BKN015 BECMG 2423/2501 09002KT BECMG 2502/2504 SCT020 BECMG 2508/2510 08006KT FEW011 PROB30 2510/2512 BKN004 BECMG 2512/2514 07008KT FEW015 BECMG 2514/2516 10007KT FEW025 BECMG 2518/2520 15005KT BKN020 BECMG 2521/2523 13002KT BKN015 RMK PGM

Decode

Departure Runways

ID Width Length Bearing (true) Bearing (mag) Surface Threshold Offset Overrun Length
09L 148 ft / 45 m 12,676 ft / 3,864 m 73.61° 95.08° Asphalt 495 ft / 151 m 0 ft / 0 m
09R 148 ft / 45 m 9,950 ft / 3,033 m 73.60° 95.07° Asphalt 0 ft / 0 m 197 ft / 60 m
27L 148 ft / 45 m 9,950 ft / 3,033 m 253.59° 275.06° Asphalt 0 ft / 0 m 197 ft / 60 m
27R 148 ft / 45 m 12,676 ft / 3,864 m 253.60° 275.07° Asphalt 197 ft / 60 m 0 ft / 0 m

SBCG

Details ICAO SBCG (CGR)
Name Campo Grande
Region Brazil
Timezone America/Campo_Grande (UTC-4.0)
Stats Elevation 1,833 ft / 559 m (AMSL)
Location -20.468666° -54.672500°
Runways 1
Magnetic Variation 17.603° W

METAR

SBCG 241800Z VRB02KT 9999 FEW025 28/11 Q1020

Decode

TAF

TAF SBCG 241615Z 2418/2518 09007KT 9999 FEW030 TX27/2418Z TN17/2509Z RMK PCX

Decode

Destination Runways

ID Width Length Bearing (true) Bearing (mag) Surface Threshold Offset Overrun Length
06 141 ft / 43 m 8,563 ft / 2,610 m 40.84° 58.44° Asphalt 0 ft / 0 m 192 ft / 59 m
24 141 ft / 43 m 8,563 ft / 2,610 m 220.83° 238.43° Asphalt 0 ft / 0 m 190 ft / 58 m

Approach Navaids

Runway Type Ident Frequency Range Bearing (true) Bearing (mag) Slope Elevation
06 Localiser ICG 110.30 MHz 18 nm / 33 km 41.62° 59.22° - 1,833 ft / 559 m (AMSL)
06 Glidescope ICG 110.30 MHz 10 nm / 19 km 40.84° 58.44° 3.00° 1,833 ft / 559 m (AMSL)

Popular Alternatives